ACA2619 KBOS-CYHZ
Flight info
| Callsign | ACA2619 |
|---|---|
| Flight time | N/A |
| Altitude | 39000 |
| Route | LBSTA8 LBSTA DCT ALLEX FUNDY5 |
| Aircraft | B77L/H-SDE1E2E3FGHIJ2J3J4J5M1RWXY/LB1D1 |
Departure
| Time | 2026-05-04 22:34 |
|---|---|
| Airport | Boston Logan International Airport (KBOS) |
Arrival
| Time | N/A |
|---|---|
| Airport | Halifax / Stanfield International Airport (CYHZ) |
| Time | Latitude | Longitude | Altitude | Speed | Heading |
|---|---|---|---|---|---|
| 2026-05-04 22:14 | 42.37142 | -71.02087 | 30 ft | 0 kts | 176° |
| 2026-05-04 22:26 | 42.37141 | -71.02087 | 30 ft | 0 kts | 176° |
| 2026-05-04 22:26 | 42.37133 | -71.02087 | 30 ft | 2 kts | 176° |
| 2026-05-04 22:26 | 42.37141 | -71.02087 | 30 ft | 2 kts | 176° |
| 2026-05-04 22:27 | 42.37157 | -71.02089 | 29 ft | 2 kts | 176° |
| 2026-05-04 22:27 | 42.37174 | -71.02090 | 29 ft | 2 kts | 176° |
| 2026-05-04 22:27 | 42.37191 | -71.02091 | 29 ft | 3 kts | 164° |
| 2026-05-04 22:27 | 42.37206 | -71.02102 | 29 ft | 3 kts | 124° |
| 2026-05-04 22:28 | 42.37212 | -71.02115 | 28 ft | 0 kts | 100° |
| 2026-05-04 22:28 | 42.37212 | -71.02113 | 28 ft | 0 kts | 101° |
| 2026-05-04 22:28 | 42.37211 | -71.02110 | 28 ft | 1 kts | 101° |
| 2026-05-04 22:28 | 42.37211 | -71.02108 | 29 ft | 0 kts | 99° |
| 2026-05-04 22:29 | 42.37218 | -71.02049 | 30 ft | 11 kts | 80° |
| 2026-05-04 22:29 | 42.37243 | -71.01947 | 30 ft | 12 kts | 57° |
| 2026-05-04 22:29 | 42.37275 | -71.01904 | 30 ft | 7 kts | 43° |
| 2026-05-04 22:29 | 42.37267 | -71.01790 | 30 ft | 14 kts | 129° |
| 2026-05-04 22:30 | 42.37196 | -71.01693 | 30 ft | 14 kts | 141° |
| 2026-05-04 22:30 | 42.37121 | -71.01601 | 30 ft | 15 kts | 132° |
| 2026-05-04 22:30 | 42.37050 | -71.01503 | 30 ft | 15 kts | 137° |
| 2026-05-04 22:30 | 42.36977 | -71.01410 | 30 ft | 14 kts | 138° |
| 2026-05-04 22:31 | 42.36929 | -71.01336 | 29 ft | 5 kts | 127° |
| 2026-05-04 22:31 | 42.36938 | -71.01253 | 30 ft | 24 kts | 90° |
| 2026-05-04 22:31 | 42.37048 | -71.01072 | 30 ft | 27 kts | 26° |
| 2026-05-04 22:31 | 42.37176 | -71.00988 | 30 ft | 17 kts | 25° |
| 2026-05-04 22:32 | 42.37255 | -71.00937 | 30 ft | 12 kts | 25° |
| 2026-05-04 22:32 | 42.37391 | -71.00864 | 30 ft | 34 kts | 20° |
| 2026-05-04 22:32 | 42.37597 | -71.00763 | 30 ft | 31 kts | 19° |
| 2026-05-04 22:32 | 42.37768 | -71.00681 | 30 ft | 24 kts | 19° |
| 2026-05-04 22:33 | 42.37829 | -71.00603 | 30 ft | 8 kts | 87° |
| 2026-05-04 22:33 | 42.37763 | -71.00496 | 30 ft | 20 kts | 187° |
| 2026-05-04 22:33 | 42.37544 | -71.00592 | 31 ft | 70 kts | 199° |
| 2026-05-04 22:33 | 42.36751 | -71.00970 | 88 ft | 162 kts | 198° |
| 2026-05-04 22:34 | 42.35545 | -71.01546 | 452 ft | 213 kts | 201° |
| 2026-05-04 22:34 | 42.34002 | -71.01735 | 974 ft | 232 kts | 167° |
| 2026-05-04 22:34 | 42.32748 | -71.00430 | 2318 ft | 229 kts | 130° |
| 2026-05-04 22:34 | 42.31888 | -70.98647 | 3234 ft | 231 kts | 129° |
| 2026-05-04 22:35 | 42.31101 | -70.96739 | 4035 ft | 241 kts | 108° |
| 2026-05-04 22:35 | 42.31153 | -70.94386 | 4565 ft | 267 kts | 76° |
| 2026-05-04 22:35 | 42.31645 | -70.91877 | 5125 ft | 281 kts | 75° |
| 2026-05-04 22:35 | 42.32459 | -70.89469 | 5893 ft | 286 kts | 47° |
| 2026-05-04 22:36 | 42.34055 | -70.88004 | 6886 ft | 273 kts | 17° |
| 2026-05-04 22:36 | 42.35843 | -70.87099 | 7742 ft | 278 kts | 14° |
| 2026-05-04 22:36 | 42.37665 | -70.86159 | 8703 ft | 283 kts | 15° |
| 2026-05-04 22:36 | 42.39498 | -70.85176 | 9813 ft | 283 kts | 15° |
| 2026-05-04 22:37 | 42.41346 | -70.84160 | 10684 ft | 293 kts | 16° |
| 2026-05-04 22:37 | 42.43332 | -70.83054 | 11039 ft | 325 kts | 17° |
| 2026-05-04 22:37 | 42.45525 | -70.81809 | 11326 ft | 357 kts | 18° |
| 2026-05-04 22:37 | 42.47851 | -70.80455 | 12177 ft | 370 kts | 19° |
| 2026-05-04 22:38 | 42.50242 | -70.79045 | 13256 ft | 378 kts | 20° |
| 2026-05-04 22:38 | 42.52675 | -70.77605 | 13923 ft | 383 kts | 20° |
| 2026-05-04 22:38 | 42.55125 | -70.76155 | 13994 ft | 386 kts | 20° |
| 2026-05-04 22:38 | 42.57552 | -70.74718 | 13992 ft | 385 kts | 20° |
| 2026-05-04 22:39 | 42.59999 | -70.73267 | 13994 ft | 383 kts | 19° |
| 2026-05-04 22:39 | 42.62446 | -70.71821 | 14151 ft | 386 kts | 19° |
| 2026-05-04 22:39 | 42.64924 | -70.70353 | 15185 ft | 389 kts | 19° |
| 2026-05-04 22:39 | 42.67412 | -70.68878 | 16373 ft | 391 kts | 19° |
| 2026-05-04 22:40 | 42.69919 | -70.67392 | 17499 ft | 394 kts | 19° |
| 2026-05-04 22:40 | 42.72454 | -70.65890 | 18463 ft | 400 kts | 19° |
| 2026-05-04 22:40 | 42.75018 | -70.64369 | 19396 ft | 403 kts | 19° |
| 2026-05-04 22:40 | 42.77573 | -70.62759 | 20337 ft | 408 kts | 24° |
| 2026-05-04 22:41 | 42.79921 | -70.60492 | 21228 ft | 420 kts | 37° |
| 2026-05-04 22:41 | 42.81916 | -70.57600 | 22168 ft | 430 kts | 49° |
| 2026-05-04 22:41 | 42.83586 | -70.54200 | 22997 ft | 435 kts | 53° |
| 2026-05-04 22:41 | 42.85210 | -70.50685 | 23752 ft | 441 kts | 53° |
| 2026-05-04 22:42 | 42.86847 | -70.47126 | 24493 ft | 445 kts | 53° |
| 2026-05-04 22:42 | 42.88506 | -70.43538 | 25224 ft | 449 kts | 52° |
| 2026-05-04 22:42 | 42.90192 | -70.39918 | 25925 ft | 453 kts | 52° |
| 2026-05-04 22:42 | 42.91900 | -70.36273 | 26602 ft | 458 kts | 52° |
| 2026-05-04 22:43 | 42.93631 | -70.32591 | 27282 ft | 463 kts | 51° |
| 2026-05-04 22:43 | 42.95383 | -70.28872 | 27941 ft | 468 kts | 51° |
| 2026-05-04 22:43 | 42.97152 | -70.25112 | 28630 ft | 472 kts | 51° |
| 2026-05-04 22:43 | 42.98933 | -70.21326 | 29283 ft | 476 kts | 51° |
| 2026-05-04 22:44 | 43.00706 | -70.17549 | 29928 ft | 479 kts | 51° |
| 2026-05-04 22:44 | 43.02513 | -70.13693 | 30479 ft | 483 kts | 51° |
| 2026-05-04 22:44 | 43.04331 | -70.09808 | 30908 ft | 487 kts | 51° |
| 2026-05-04 22:44 | 43.06165 | -70.05884 | 31319 ft | 492 kts | 52° |
| 2026-05-04 22:45 | 43.08007 | -70.01935 | 31809 ft | 493 kts | 52° |
| 2026-05-04 22:45 | 43.11687 | -69.94021 | 33019 ft | 492 kts | 52° |
| 2026-05-04 22:45 | 43.13519 | -69.90073 | 33589 ft | 492 kts | 52° |
| 2026-05-04 22:46 | 43.15363 | -69.86098 | 34077 ft | 492 kts | 53° |
| 2026-05-04 22:46 | 43.17208 | -69.82119 | 34307 ft | 498 kts | 53° |
| 2026-05-04 22:46 | 43.19048 | -69.78148 | 34640 ft | 501 kts | 53° |
| 2026-05-04 22:46 | 43.20915 | -69.74108 | 35074 ft | 501 kts | 53° |
| 2026-05-04 22:47 | 43.22780 | -69.70065 | 35466 ft | 502 kts | 53° |
| 2026-05-04 22:47 | 43.24647 | -69.66011 | 35797 ft | 504 kts | 54° |
| 2026-05-04 22:47 | 43.26528 | -69.61924 | 36154 ft | 506 kts | 54° |
| 2026-05-04 22:47 | 43.28411 | -69.57827 | 36506 ft | 508 kts | 54° |
| 2026-05-04 22:48 | 43.30298 | -69.53715 | 36863 ft | 509 kts | 54° |
| 2026-05-04 22:48 | 43.32187 | -69.49591 | 37228 ft | 511 kts | 54° |
| 2026-05-04 22:48 | 43.34083 | -69.45448 | 37539 ft | 513 kts | 54° |
| 2026-05-04 22:48 | 43.35991 | -69.41273 | 37867 ft | 515 kts | 55° |
| 2026-05-04 22:49 | 43.37893 | -69.37103 | 38224 ft | 516 kts | 55° |
| 2026-05-04 22:49 | 43.39775 | -69.32974 | 38538 ft | 517 kts | 55° |
| 2026-05-04 22:49 | 43.41692 | -69.28762 | 38737 ft | 520 kts | 55° |
| 2026-05-04 22:49 | 43.43619 | -69.24520 | 38775 ft | 525 kts | 55° |
| 2026-05-04 22:50 | 43.47488 | -69.15984 | 38838 ft | 523 kts | 55° |
| 2026-05-04 22:50 | 43.51310 | -69.07523 | 38829 ft | 517 kts | 56° |
| 2026-05-04 22:51 | 43.55102 | -68.99109 | 38835 ft | 516 kts | 56° |
| 2026-05-04 22:51 | 43.58886 | -68.90693 | 38841 ft | 515 kts | 56° |
| 2026-05-04 22:52 | 43.62637 | -68.82323 | 38849 ft | 516 kts | 56° |
| 2026-05-04 22:52 | 43.66412 | -68.73878 | 38839 ft | 518 kts | 56° |
| 2026-05-04 22:53 | 43.70199 | -68.65379 | 38837 ft | 520 kts | 56° |
| 2026-05-04 22:53 | 43.73991 | -68.56841 | 38856 ft | 522 kts | 56° |
| 2026-05-04 22:54 | 43.77793 | -68.48258 | 38842 ft | 524 kts | 56° |
| 2026-05-04 22:54 | 43.81599 | -68.39639 | 38839 ft | 525 kts | 56° |
| 2026-05-04 22:55 | 43.85407 | -68.30991 | 38838 ft | 525 kts | 56° |
| 2026-05-04 22:55 | 43.89206 | -68.22336 | 38839 ft | 525 kts | 56° |
| 2026-05-04 22:56 | 43.92979 | -68.13714 | 38836 ft | 525 kts | 56° |
| 2026-05-04 22:56 | 43.96762 | -68.05044 | 38833 ft | 525 kts | 57° |
| 2026-05-04 22:57 | 44.00536 | -67.96370 | 38850 ft | 524 kts | 57° |
| 2026-05-04 22:57 | 44.04300 | -67.87692 | 38839 ft | 525 kts | 57° |
| 2026-05-04 22:58 | 44.08061 | -67.78996 | 38838 ft | 525 kts | 57° |
| 2026-05-04 22:58 | 44.11819 | -67.70279 | 38836 ft | 525 kts | 57° |
| 2026-05-04 22:59 | 44.15567 | -67.61558 | 38850 ft | 526 kts | 57° |
| 2026-05-04 22:59 | 44.19323 | -67.52793 | 38841 ft | 526 kts | 57° |
| 2026-05-04 23:00 | 44.23048 | -67.44070 | 38831 ft | 526 kts | 57° |
| 2026-05-04 23:00 | 44.26795 | -67.35274 | 38839 ft | 527 kts | 57° |
| 2026-05-04 23:01 | 44.30365 | -67.26861 | 38822 ft | 508 kts | 57° |
| 2026-05-04 23:01 | 44.33894 | -67.18521 | 38808 ft | 488 kts | 57° |
| 2026-05-04 23:02 | 44.37283 | -67.10489 | 38806 ft | 472 kts | 58° |